This is the latest recevied weather packets stored in our database for station/object WV8BRW. If no packets are shown the sender has not sent any weather packets the latest 10 day(s).
| Time | Temp. | Humidity | Pressure | Rain* | Wind** | Luminosity | Snow |
|---|---|---|---|---|---|---|---|
| 1777752944 | 13.33° C | 43% | 1013.8 hPa | 0 mm | - | 399 W/m² | - |
| 1777752641 | 12.78° C | 46% | 1013.8 hPa | 0 mm | - | 272 W/m² | - |
| 1777752337 | 12.78° C | 45% | 1013.9 hPa | 0 mm | - | 201 W/m² | - |
| 1777752035 | 12.78° C | 44% | 1014 hPa | 0 mm | - | 213 W/m² | - |
| 1777751732 | 12.78° C | 48% | 1014 hPa | 0 mm | - | 258 W/m² | - |
| 1777751428 | 12.22° C | 46% | 1013.9 hPa | 0 mm | - | 308 W/m² | - |
| 1777751125 | 12.22° C | 47% | 1013.9 hPa | 0 mm | - | 135 W/m² | - |
| 1777750821 | 12.78° C | 45% | 1013.9 hPa | 0 mm | - | 107 W/m² | - |
| 1777750518 | 12.78° C | 43% | 1014.1 hPa | 0 mm | - | 129 W/m² | - |
| 1777750215 | 13.33° C | 45% | 1013.9 hPa | 0 mm | - | 180 W/m² | - |
| 1777749910 | 13.33° C | 49% | 1014.2 hPa | 0 mm | - | 985 W/m² | - |
| 1777749608 | 11.67° C | 47% | 1014.2 hPa | 0 mm | - | 234 W/m² | - |
| 1777749305 | 11.67° C | 48% | 1014.3 hPa | 0 mm | - | 128 W/m² | - |
| 1777749003 | 12.22° C | 47% | 1014.4 hPa | 0 mm | - | 101 W/m² | - |
| 1777748700 | 11.67° C | 45% | 1014.2 hPa | 0 mm | - | 121 W/m² | - |
| 1777748396 | 12.22° C | 46% | 1014.3 hPa | 0 mm | - | 173 W/m² | - |
| 1777748092 | 12.22° C | 49% | 1014.2 hPa | 0 mm | - | 184 W/m² | - |
| 1777747789 | 12.22° C | 46% | 1014.5 hPa | 0 mm | - | 137 W/m² | - |
| 1777747484 | 13.33° C | 45% | 1014.3 hPa | 0 mm | - | 189 W/m² | - |
| 1777747181 | 13.33° C | 47% | 1014.5 hPa | 0 mm | - | 1053 W/m² | - |
| 1777746877 | 12.22° C | 43% | 1014.5 hPa | 0 mm | - | 340 W/m² | - |
| 1777746572 | 12.22° C | 46% | 1014.7 hPa | 0 mm | - | 451 W/m² | - |
| 1777746268 | 12.22° C | 49% | 1014.5 hPa | 0 mm | - | 541 W/m² | - |
| 1777745964 | 12.22° C | 46% | 1014.8 hPa | 0 mm | - | 223 W/m² | - |
| 1777745663 | 12.22° C | 45% | 1014.5 hPa | 0 mm | - | 185 W/m² | - |
* Rain latest hour (hover to see other rain measurements)
** Current wind speed in m/s (hover to see current wind gust speed)